Loughrea, Ireland
Current Conditions -  °F | °C
As of 1:30 PM on Monday 22 Dec 2014 (Local Time) from EINN Reporting Station
Light Rain Light Rain  
Wind Chill: 11°   Ceiling: 1200
Heat Index: 11°   Visibility: 1.8mi
Dew Point: 11°   Wind: 29mph
Humidity: 100%   Direction: 230°SW
Pressure: 29.88"   Gusts: NA
Location:  53.2°N, 8.57°W
Report Text: EINN 221330Z 23025KT 3000 -RADZ FEW007 BKN012 BKN015 11/11 Q1012 TEMPO BKN008
Loading
Personal Weather Stations






























Interactive Weather Map New forecast layout! Learn more

10-Day Weather Forecast

Advertisements
Track Severe Weather on mobile